Time;durP1;ratioP1;P1;durP2;ratioP2;P2;SDS_P1;SDS_P2;PMS_P1;PMS_P2;Temp;Humidity;BMP_temperature;BMP_pressure;BME280_temperature;BME280_humidity;BME280_pressure;Samples;Min_cycle;Max_cycle;Signal;HPM_P1;HPM_P2
2021/07/28 00:00:40;;;;;;;7.07;4.40;;;27.10;48.80;;;;;;6265989;28;20122;-84
2021/07/28 00:03:41;;;;;;;7.57;3.70;;;27.10;49.10;;;;;;6251099;28;20034;-84
2021/07/28 00:06:43;;;;;;;13.70;4.03;;;27.00;49.40;;;;;;6250744;28;20114;-85
2021/07/28 00:09:44;;;;;;;9.85;3.60;;;26.90;49.70;;;;;;6250037;28;20143;-86
2021/07/28 00:12:45;;;;;;;11.20;3.75;;;26.90;50.00;;;;;;6250910;28;20034;-84
2021/07/28 00:15:47;;;;;;;6.70;3.72;;;26.90;50.00;;;;;;6250439;28;20045;-84
2021/07/28 00:19:04;;;;;;;10.38;3.53;;;26.90;50.10;;;;;;6249703;28;20056;-85
2021/07/28 00:25:51;;;;;;;6.50;3.95;;;26.80;50.20;;;;;;6239328;28;20038;-85
2021/07/28 00:28:54;;;;;;;9.27;3.47;;;26.70;50.40;;;;;;6258441;28;20045;-84
2021/07/28 00:31:55;;;;;;;9.27;3.72;;;26.70;50.60;;;;;;6261517;28;20120;-85
2021/07/28 00:34:56;;;;;;;12.73;4.20;;;26.70;50.90;;;;;;6244776;28;20045;-85
2021/07/28 00:38:05;;;;;;;6.07;3.55;;;26.70;51.20;;;;;;6244543;28;20425;-86
2021/07/28 00:41:06;;;;;;;12.80;4.00;;;26.60;51.50;;;;;;6242938;28;20095;-86
2021/07/28 00:44:07;;;;;;;8.85;3.80;;;26.60;51.50;;;;;;6245524;28;20053;-87
2021/07/28 00:47:11;;;;;;;8.05;4.10;;;26.70;51.80;;;;;;6259160;28;20041;-86
2021/07/28 00:50:13;;;;;;;11.20;3.97;;;26.60;51.80;;;;;;6252193;28;20120;-85
2021/07/28 00:53:20;;;;;;;5.60;3.60;;;26.70;51.80;;;;;;6245365;28;20458;-85
2021/07/28 00:56:23;;;;;;;4.50;3.20;;;26.60;52.00;;;;;;6245095;28;20041;-85
2021/07/28 00:59:25;;;;;;;7.93;3.83;;;26.50;52.00;;;;;;6244034;28;20052;-85
2021/07/28 01:02:26;;;;;;;11.90;3.78;;;26.50;52.20;;;;;;6245093;28;20052;-85
2021/07/28 01:05:27;;;;;;;5.57;3.55;;;26.40;52.30;;;;;;6242276;28;20343;-85
2021/07/28 01:08:28;;;;;;;7.32;3.28;;;26.40;52.40;;;;;;6232731;28;20029;-85
2021/07/28 01:11:29;;;;;;;7.03;3.72;;;26.40;52.40;;;;;;6252146;28;20037;-85
2021/07/28 01:14:30;;;;;;;6.18;4.10;;;26.40;52.50;;;;;;6245254;28;20324;-84
2021/07/28 01:17:31;;;;;;;6.10;3.58;;;26.40;52.70;;;;;;6250311;28;20098;-85
2021/07/28 01:20:44;;;;;;;11.98;3.63;;;26.40;52.60;;;;;;6235095;28;20769;-84
2021/07/28 01:23:47;;;;;;;6.30;3.78;;;26.40;52.60;;;;;;6234905;28;20041;-85
2021/07/28 01:26:48;;;;;;;6.03;3.60;;;26.50;52.40;;;;;;6233563;28;20040;-85
2021/07/28 01:29:49;;;;;;;6.68;3.88;;;26.50;52.40;;;;;;6237617;28;20033;-85
2021/07/28 01:32:51;;;;;;;14.95;3.67;;;26.50;52.50;;;;;;6234177;28;20026;-85
2021/07/28 01:35:52;;;;;;;8.85;3.97;;;26.40;52.50;;;;;;6238107;28;20059;-85
2021/07/28 01:38:53;;;;;;;5.80;3.30;;;26.40;52.70;;;;;;6249861;28;20022;-85
2021/07/28 01:42:00;;;;;;;6.05;3.42;;;26.40;52.70;;;;;;6250857;28;20038;-85
2021/07/28 01:45:02;;;;;;;10.20;4.00;;;26.40;52.80;;;;;;6238459;28;20095;-84
2021/07/28 01:48:03;;;;;;;7.80;3.92;;;26.50;52.80;;;;;;6228652;28;20038;-85
2021/07/28 01:51:04;;;;;;;7.00;3.75;;;26.50;52.70;;;;;;6236920;28;20038;-84
2021/07/28 01:54:05;;;;;;;7.18;3.65;;;26.50;52.60;;;;;;6228897;28;20421;-84
2021/07/28 01:57:06;;;;;;;8.30;4.13;;;26.50;52.70;;;;;;6250182;28;20355;-84
2021/07/28 02:00:07;;;;;;;9.93;3.80;;;26.40;52.80;;;;;;6247871;28;20037;-84
2021/07/28 02:03:08;;;;;;;8.25;3.83;;;26.40;53.00;;;;;;6235185;28;20037;-84
2021/07/28 02:06:10;;;;;;;6.75;3.90;;;26.30;53.20;;;;;;6260906;28;20378;-84
2021/07/28 02:09:11;;;;;;;9.13;3.95;;;26.30;53.40;;;;;;6236186;28;20105;-85
2021/07/28 02:12:12;;;;;;;11.50;4.40;;;26.20;53.60;;;;;;6239821;28;20040;-84
2021/07/28 02:15:13;;;;;;;7.35;3.78;;;26.20;53.80;;;;;;6254444;28;20401;-84
2021/07/28 02:18:15;;;;;;;9.70;3.88;;;26.20;54.30;;;;;;6237220;28;20033;-85
2021/07/28 02:21:16;;;;;;;7.60;3.95;;;26.10;54.50;;;;;;6254678;28;20057;-85
2021/07/28 02:24:16;;;;;;;9.43;4.07;;;26.00;54.70;;;;;;6237877;28;20040;-85
2021/07/28 02:27:17;;;;;;;7.03;3.50;;;26.00;54.90;;;;;;6236823;28;20049;-85
2021/07/28 02:30:18;;;;;;;6.45;3.47;;;25.90;54.90;;;;;;6249329;28;20183;-83
2021/07/28 02:33:20;;;;;;;7.47;4.07;;;25.90;54.90;;;;;;6252911;28;20378;-84
2021/07/28 02:36:21;;;;;;;7.53;3.88;;;25.90;54.70;;;;;;6240901;28;20467;-84
2021/07/28 02:39:22;;;;;;;8.13;4.30;;;25.90;54.30;;;;;;6233353;28;20040;-84
2021/07/28 02:42:25;;;;;;;8.93;3.92;;;25.90;53.70;;;;;;6254685;28;20041;-83
2021/07/28 02:45:26;;;;;;;7.47;3.50;;;26.00;53.20;;;;;;6234685;28;20140;-84
2021/07/28 02:48:26;;;;;;;6.05;3.35;;;26.10;52.80;;;;;;6220068;28;20345;-82
2021/07/28 02:51:27;;;;;;;13.55;3.83;;;26.20;52.00;;;;;;6255170;28;20096;-83
2021/07/28 02:54:28;;;;;;;12.98;3.60;;;26.20;51.50;;;;;;6254440;28;20124;-83
2021/07/28 02:57:30;;;;;;;11.00;3.70;;;26.20;50.90;;;;;;6236731;28;20420;-83
2021/07/28 03:00:30;;;;;;;5.35;2.90;;;26.20;50.30;;;;;;6253929;28;20026;-83
2021/07/28 03:03:31;;;;;;;5.57;3.55;;;26.20;49.50;;;;;;6237500;28;20029;-82
2021/07/28 03:06:34;;;;;;;9.15;2.95;;;26.10;49.50;;;;;;6241546;28;20025;-83
2021/07/28 03:09:34;;;;;;;4.63;3.13;;;26.00;49.60;;;;;;6242557;28;20104;-83
2021/07/28 03:16:58;;;;;;;5.80;2.83;;;25.80;50.50;;;;;;6234608;28;20444;-83
2021/07/28 03:20:00;;;;;;;8.82;3.20;;;25.70;51.10;;;;;;6252819;28;20045;-82
2021/07/28 03:23:01;;;;;;;9.68;3.55;;;25.50;51.60;;;;;;6233647;28;20435;-82
2021/07/28 03:26:04;;;;;;;5.78;3.20;;;25.60;52.10;;;;;;6237257;28;20030;-82
2021/07/28 03:29:05;;;;;;;5.72;3.63;;;25.20;52.30;;;;;;6229216;28;20124;-82
2021/07/28 03:32:07;;;;;;;4.45;2.90;;;25.20;52.60;;;;;;6254208;28;20068;-82
2021/07/28 03:35:08;;;;;;;7.30;3.58;;;25.00;53.00;;;;;;6239539;28;20038;-81
2021/07/28 03:38:10;;;;;;;7.43;3.70;;;24.90;53.50;;;;;;6242103;28;20065;-81
2021/07/28 03:41:11;;;;;;;8.02;3.70;;;24.80;53.90;;;;;;6239905;28;20034;-82
2021/07/28 03:44:12;;;;;;;5.40;3.00;;;24.70;54.30;;;;;;6224136;28;20041;-81
2021/07/28 03:47:13;;;;;;;6.35;3.03;;;24.50;54.80;;;;;;6223876;28;20037;-82
2021/07/28 03:50:14;;;;;;;7.30;3.45;;;24.40;55.30;;;;;;6239530;28;20472;-80
2021/07/28 03:53:15;;;;;;;7.25;3.25;;;24.30;55.60;;;;;;6224282;28;20046;-82
2021/07/28 03:56:22;;;;;;;5.22;3.05;;;24.20;56.00;;;;;;6224442;28;20042;-82
2021/07/28 03:59:23;;;;;;;6.70;3.38;;;24.20;56.30;;;;;;6224246;28;20498;-84
2021/07/28 04:02:27;;;;;;;5.57;3.25;;;23.60;56.20;;;;;;6222992;28;20152;-84
2021/07/28 04:05:30;;;;;;;6.57;3.15;;;24.00;56.90;;;;;;6234178;28;20465;-84
2021/07/28 04:08:31;;;;;;;6.75;3.58;;;23.90;57.30;;;;;;6245429;28;20124;-84
2021/07/28 04:11:35;;;;;;;10.10;4.07;;;23.70;57.90;;;;;;6247049;28;20029;-83
2021/07/28 04:14:39;;;;;;;12.77;3.38;;;23.60;58.80;;;;;;6250152;28;20057;-82
2021/07/28 04:17:40;;;;;;;10.93;4.65;;;23.50;59.60;;;;;;6244841;28;20040;-82
2021/07/28 04:20:41;;;;;;;11.38;3.88;;;23.60;60.00;;;;;;6263755;28;20030;-82
2021/07/28 04:23:42;;;;;;;11.27;3.90;;;23.60;59.90;;;;;;6247960;28;20039;-82
2021/07/28 04:26:43;;;;;;;7.75;3.30;;;23.70;59.90;;;;;;6262143;28;20025;-82
2021/07/28 04:29:44;;;;;;;9.20;3.67;;;23.70;60.00;;;;;;6244781;28;20060;-82
2021/07/28 04:32:45;;;;;;;8.02;3.72;;;23.70;60.10;;;;;;6244560;28;20033;-82
2021/07/28 04:35:46;;;;;;;9.98;3.95;;;23.60;60.60;;;;;;6256228;28;20041;-82
2021/07/28 04:38:47;;;;;;;8.43;4.18;;;23.40;60.90;;;;;;6246301;28;20048;-83
2021/07/28 04:41:48;;;;;;;13.55;3.60;;;23.30;61.70;;;;;;6262974;28;20033;-82
2021/07/28 04:44:49;;;;;;;12.60;3.92;;;23.10;62.30;;;;;;6247852;28;20040;-83
2021/07/28 04:47:49;;;;;;;7.40;3.85;;;23.00;63.00;;;;;;6244563;28;20026;-82
2021/07/28 04:50:51;;;;;;;7.80;3.72;;;22.90;63.30;;;;;;6244193;28;20059;-83
2021/07/28 04:53:52;;;;;;;10.23;3.63;;;22.90;63.60;;;;;;6263202;28;20035;-82
2021/07/28 04:56:53;;;;;;;7.80;3.60;;;22.90;63.80;;;;;;6246528;28;20304;-83
2021/07/28 04:59:54;;;;;;;7.22;3.97;;;22.90;64.20;;;;;;6244802;28;20029;-82
2021/07/28 05:02:55;;;;;;;14.85;4.28;;;22.90;64.60;;;;;;6246807;28;20367;-83
2021/07/28 05:05:56;;;;;;;5.20;3.38;;;23.00;64.90;;;;;;6247023;28;20048;-82
2021/07/28 05:08:57;;;;;;;6.80;3.47;;;23.00;65.40;;;;;;6243944;28;20042;-82
2021/07/28 05:11:58;;;;;;;6.47;3.17;;;23.00;65.70;;;;;;6262338;28;20072;-82
2021/07/28 05:15:00;;;;;;;6.25;3.28;;;23.00;65.80;;;;;;6245989;28;20125;-82
2021/07/28 05:18:01;;;;;;;10.65;3.20;;;23.00;66.10;;;;;;6246761;28;20033;-83
2021/07/28 05:21:15;;;;;;;6.28;3.13;;;23.00;66.30;;;;;;6243681;28;20049;-87
2021/07/28 05:24:16;;;;;;;5.95;3.03;;;23.00;66.70;;;;;;6229021;28;20578;-83
2021/07/28 05:27:17;;;;;;;9.38;3.55;;;23.00;66.30;;;;;;6217758;28;20061;-82
2021/07/28 05:30:18;;;;;;;6.88;3.47;;;23.00;66.00;;;;;;6254747;28;20095;-81
2021/07/28 05:33:19;;;;;;;10.43;3.28;;;23.00;65.80;;;;;;6239245;28;20065;-82
2021/07/28 05:36:20;;;;;;;8.43;3.78;;;23.00;65.80;;;;;;6256071;28;20186;-85
2021/07/28 05:39:21;;;;;;;4.65;3.17;;;23.00;65.50;;;;;;6242580;28;20116;-82
2021/07/28 05:42:22;;;;;;;8.30;3.08;;;23.00;65.50;;;;;;6246385;28;20528;-83
2021/07/28 05:45:25;;;;;;;10.77;3.80;;;23.20;65.50;;;;;;6262993;28;20053;-82
2021/07/28 05:48:31;;;;;;;6.25;3.45;;;23.20;65.10;;;;;;6254110;28;20038;-83
2021/07/28 05:51:32;;;;;;;7.03;3.33;;;23.40;64.80;;;;;;6222885;28;20038;-83
2021/07/28 05:54:42;;;;;;;5.93;3.75;;;23.50;64.30;;;;;;6222988;28;20052;-82
2021/07/28 05:57:43;;;;;;;5.88;3.35;;;23.60;64.00;;;;;;6237396;28;20072;-82
2021/07/28 06:00:44;;;;;;;9.15;3.70;;;23.60;63.90;;;;;;6240384;28;20037;-81
2021/07/28 06:03:45;;;;;;;6.38;3.55;;;24.70;64.80;;;;;;6253302;28;20034;-81
2021/07/28 06:06:46;;;;;;;8.13;3.95;;;23.60;63.80;;;;;;6244520;28;20514;-82
2021/07/28 06:09:46;;;;;;;9.98;3.92;;;23.60;63.80;;;;;;6255503;28;20343;-81
2021/07/28 06:12:47;;;;;;;11.05;3.13;;;23.60;63.80;;;;;;6217692;28;20068;-81
2021/07/28 06:15:50;;;;;;;7.20;3.38;;;23.60;63.70;;;;;;6260250;28;20107;-82
2021/07/28 06:18:52;;;;;;;5.90;3.65;;;23.60;63.70;;;;;;6246469;28;20116;-81
2021/07/28 06:21:53;;;;;;;6.60;3.58;;;23.60;63.70;;;;;;6260317;28;20045;-81
2021/07/28 06:24:54;;;;;;;6.85;3.33;;;23.60;63.90;;;;;;6259110;28;20106;-82
2021/07/28 06:27:55;;;;;;;10.90;3.60;;;23.60;64.20;;;;;;6263624;28;20034;-82
2021/07/28 06:30:56;;;;;;;8.63;3.85;;;23.60;64.60;;;;;;6243902;28;20415;-82
2021/07/28 06:33:58;;;;;;;10.35;4.25;;;23.60;64.70;;;;;;6259981;28;20462;-81
2021/07/28 06:36:59;;;;;;;9.10;3.42;;;23.50;64.70;;;;;;6264081;28;20107;-81
2021/07/28 06:40:01;;;;;;;6.57;3.47;;;23.40;64.90;;;;;;6245419;28;20480;-81
2021/07/28 06:43:02;;;;;;;15.45;3.80;;;23.50;65.10;;;;;;6243107;28;20125;-83
2021/07/28 06:46:03;;;;;;;7.40;4.05;;;23.40;64.90;;;;;;6245649;28;20034;-83
2021/07/28 06:49:04;;;;;;;8.20;3.65;;;23.40;64.90;;;;;;6248031;28;20410;-82
2021/07/28 06:52:05;;;;;;;7.53;4.25;;;23.40;65.00;;;;;;6256717;28;20455;-83
2021/07/28 06:55:07;;;;;;;9.77;4.40;;;23.40;65.20;;;;;;6240357;28;20487;-82
2021/07/28 06:58:08;;;;;;;10.82;4.22;;;23.40;65.40;;;;;;6237401;28;20118;-82
2021/07/28 07:01:09;;;;;;;7.45;3.90;;;23.40;65.60;;;;;;6262147;28;20041;-82
2021/07/28 07:04:10;;;;;;;9.98;3.95;;;23.50;66.10;;;;;;6264669;28;20056;-81
2021/07/28 07:07:12;;;;;;;8.73;4.05;;;23.70;65.50;;;;;;6241766;28;20057;-81
2021/07/28 07:10:13;;;;;;;10.15;4.13;;;24.00;64.60;;;;;;6248117;28;20037;-83
2021/07/28 07:13:14;;;;;;;5.82;3.60;;;24.20;63.70;;;;;;6236283;28;20112;-81
2021/07/28 07:16:15;;;;;;;7.05;3.13;;;24.30;63.00;;;;;;6258675;28;20053;-81
2021/07/28 07:19:16;;;;;;;8.52;3.92;;;24.40;62.70;;;;;;6241722;28;20033;-82
2021/07/28 07:22:18;;;;;;;6.40;3.70;;;24.50;62.40;;;;;;6266063;28;20052;-82
2021/07/28 07:25:20;;;;;;;7.10;4.55;;;24.60;62.00;;;;;;6262558;28;20045;-81
2021/07/28 07:28:21;;;;;;;8.13;4.45;;;24.60;61.70;;;;;;6258976;28;20037;-82
2021/07/28 07:31:22;;;;;;;7.00;3.25;;;24.70;61.40;;;;;;6249598;28;20041;-81
2021/07/28 07:34:23;;;;;;;9.50;3.58;;;24.70;61.10;;;;;;6248494;28;20454;-81
2021/07/28 07:37:24;;;;;;;8.45;4.50;;;24.80;60.70;;;;;;6265760;28;20040;-81
2021/07/28 07:40:24;;;;;;;9.30;4.18;;;25.00;60.30;;;;;;6265499;28;20144;-82
2021/07/28 07:43:25;;;;;;;5.47;3.25;;;25.00;59.90;;;;;;6262475;28;20455;-81
2021/07/28 07:46:27;;;;;;;7.05;4.07;;;25.10;59.70;;;;;;6259004;28;20100;-82
2021/07/28 07:49:28;;;;;;;6.25;3.30;;;25.30;59.60;;;;;;6228239;28;20094;-82
2021/07/28 07:52:30;;;;;;;6.03;3.70;;;25.40;59.30;;;;;;6246100;28;20029;-83
2021/07/28 07:55:31;;;;;;;8.02;4.22;;;25.50;58.80;;;;;;6247794;28;20076;-83
2021/07/28 07:58:35;;;;;;;8.30;3.67;;;25.70;58.60;;;;;;6245846;28;20049;-81
2021/07/28 08:01:38;;;;;;;7.63;3.60;;;25.90;58.20;;;;;;6246117;28;20366;-83
2021/07/28 08:04:39;;;;;;;6.38;3.85;;;26.00;57.90;;;;;;6262415;28;20421;-83
2021/07/28 08:07:40;;;;;;;9.57;3.53;;;26.30;57.70;;;;;;6264309;28;20037;-82
2021/07/28 08:10:41;;;;;;;6.65;4.30;;;26.50;57.30;;;;;;6264747;28;20128;-82
2021/07/28 08:13:43;;;;;;;5.55;3.65;;;26.60;56.70;;;;;;6239460;28;20514;-83
2021/07/28 08:16:44;;;;;;;5.30;3.38;;;26.60;56.40;;;;;;6247559;28;20037;-82
2021/07/28 08:19:45;;;;;;;4.40;3.30;;;26.70;56.30;;;;;;6246859;28;20060;-82
2021/07/28 08:22:46;;;;;;;7.00;3.45;;;26.70;56.20;;;;;;6248697;28;20033;-82
2021/07/28 08:25:47;;;;;;;5.78;3.30;;;26.70;56.10;;;;;;6245422;28;20036;-82
2021/07/28 08:28:48;;;;;;;10.77;3.00;;;26.70;56.00;;;;;;6264632;28;20037;-82
2021/07/28 08:31:49;;;;;;;8.73;3.15;;;26.80;55.80;;;;;;6264771;28;20033;-82
2021/07/28 08:34:51;;;;;;;9.23;3.65;;;26.90;55.20;;;;;;6247929;28;20060;-83
2021/07/28 08:37:52;;;;;;;7.97;3.47;;;27.00;54.90;;;;;;6263866;28;20029;-82
2021/07/28 08:40:56;;;;;;;8.10;2.85;;;27.10;54.50;;;;;;6263495;28;20037;-83
2021/07/28 08:43:58;;;;;;;10.10;3.45;;;27.10;54.20;;;;;;6263307;28;20374;-83
2021/07/28 08:46:59;;;;;;;5.78;3.10;;;27.20;54.10;;;;;;6262005;28;20048;-83
2021/07/28 08:50:02;;;;;;;6.82;2.83;;;27.20;53.90;;;;;;6245551;28;20034;-82
2021/07/28 08:53:04;;;;;;;6.10;3.08;;;27.30;53.80;;;;;;6246628;28;20025;-83
2021/07/28 08:56:08;;;;;;;8.00;3.15;;;27.40;53.60;;;;;;6229728;28;20030;-85
2021/07/28 08:59:28;;;;;;;6.55;3.13;;;27.40;53.30;;;;;;6262454;28;20366;-83
2021/07/28 09:02:29;;;;;;;5.40;2.83;;;27.40;53.30;;;;;;6245732;28;20041;-84
2021/07/28 09:05:38;;;;;;;7.78;2.95;;;27.40;52.90;;;;;;6229485;28;20065;-81
2021/07/28 09:08:40;;;;;;;7.25;3.00;;;27.50;52.70;;;;;;6246163;28;20037;-80
2021/07/28 09:11:58;;;;;;;6.55;3.20;;;27.60;52.40;;;;;;6241025;28;20049;-80
2021/07/28 09:15:04;;;;;;;5.30;2.70;;;27.70;52.10;;;;;;6260142;28;20044;-80
2021/07/28 09:18:38;;;;;;;6.60;3.08;;;27.80;51.80;;;;;;6244385;28;20386;-79
2021/07/28 09:21:39;;;;;;;6.88;3.05;;;27.90;51.60;;;;;;6260149;28;20033;-79
2021/07/28 09:24:42;;;;;;;5.35;2.78;;;27.90;51.30;;;;;;6254205;28;20029;-78
2021/07/28 09:27:51;;;;;;;6.13;3.15;;;28.00;51.60;;;;;;6243770;28;20033;-78
2021/07/28 09:30:52;;;;;;;9.52;3.25;;;28.10;50.70;;;;;;6243782;28;20393;-80
2021/07/28 09:34:10;;;;;;;6.20;2.80;;;28.30;50.50;;;;;;6257866;28;20112;-79
2021/07/28 09:37:15;;;;;;;7.15;3.15;;;28.30;50.40;;;;;;6243143;28;20037;-80
2021/07/28 09:40:26;;;;;;;8.30;3.10;;;28.40;50.00;;;;;;6242978;28;20033;-80
2021/07/28 09:43:27;;;;;;;7.88;2.83;;;28.40;49.90;;;;;;6243223;28;20355;-79
2021/07/28 09:46:29;;;;;;;8.68;3.78;;;28.40;49.80;;;;;;6243614;28;20077;-81
2021/07/28 09:49:30;;;;;;;4.30;2.60;;;28.40;49.60;;;;;;6244282;28;20053;-79
2021/07/28 09:52:34;;;;;;;4.43;2.67;;;28.30;49.50;;;;;;6243551;28;20037;-81
2021/07/28 09:55:45;;;;;;;8.85;3.00;;;28.30;49.70;;;;;;6257871;28;20033;-81
2021/07/28 09:58:46;;;;;;;8.82;3.13;;;28.40;49.70;;;;;;6255481;28;20132;-81
2021/07/28 10:01:48;;;;;;;5.75;3.28;;;28.50;49.60;;;;;;6246355;28;20037;-81
2021/07/28 10:04:51;;;;;;;10.05;3.67;;;28.40;49.50;;;;;;6233679;28;20474;-81
2021/07/28 10:07:59;;;;;;;8.27;3.42;;;28.40;49.30;;;;;;6258449;28;20049;-82
2021/07/28 10:11:00;;;;;;;7.75;3.10;;;28.30;49.40;;;;;;6243816;28;20045;-83
2021/07/28 10:14:02;;;;;;;8.95;3.53;;;28.10;49.70;;;;;;6261557;28;20358;-79
2021/07/28 10:17:04;;;;;;;4.72;3.08;;;28.20;49.90;;;;;;6246130;28;20037;-81
2021/07/28 10:20:10;;;;;;;6.68;3.35;;;28.30;49.70;;;;;;6245413;28;20033;-82
2021/07/28 10:23:11;;;;;;;8.38;2.80;;;28.30;49.60;;;;;;6237390;28;20033;-81
2021/07/28 10:26:13;;;;;;;5.38;3.15;;;28.30;49.50;;;;;;6240977;28;20429;-82
2021/07/28 10:29:16;;;;;;;4.85;2.88;;;28.30;49.30;;;;;;6249104;28;20048;-80
2021/07/28 10:32:31;;;;;;;6.55;2.58;;;28.30;49.20;;;;;;6246669;28;20045;-80
2021/07/28 10:35:32;;;;;;;5.65;2.97;;;28.30;49.40;;;;;;6234617;28;20103;-80
2021/07/28 10:38:53;;;;;;;5.90;2.55;;;28.30;48.70;;;;;;6245342;28;20042;-79
2021/07/28 10:41:55;;;;;;;6.78;2.22;;;28.30;48.80;;;;;;6250274;28;20037;-79
2021/07/28 10:45:02;;;;;;;8.18;2.50;;;28.30;48.60;;;;;;6262205;28;20198;-80
2021/07/28 10:48:03;;;;;;;5.40;2.40;;;28.60;48.30;;;;;;6262908;28;20030;-81
2021/07/28 10:51:04;;;;;;;4.55;2.38;;;28.90;47.70;;;;;;6260039;28;20125;-81
2021/07/28 10:54:05;;;;;;;3.83;2.30;;;29.10;47.00;;;;;;6230282;28;20507;-81
2021/07/28 10:57:07;;;;;;;2.88;2.10;;;29.30;46.40;;;;;;6263015;28;20068;-80
2021/07/28 11:00:12;;;;;;;3.22;2.40;;;29.40;45.80;;;;;;6230827;28;20033;-80
2021/07/28 11:03:17;;;;;;;3.95;2.15;;;29.50;45.60;;;;;;6247762;28;20117;-80
2021/07/28 11:06:19;;;;;;;4.03;2.53;;;29.90;45.10;;;;;;6246439;28;20045;-81
2021/07/28 11:09:20;;;;;;;3.83;2.50;;;30.90;43.60;;;;;;6261195;28;20431;-80
2021/07/28 11:12:27;;;;;;;3.50;2.35;;;32.00;41.50;;;;;;6260632;28;20033;-80
2021/07/28 11:15:28;;;;;;;3.00;2.13;;;32.90;39.70;;;;;;6218541;28;20037;-80
2021/07/28 11:18:41;;;;;;;3.05;1.92;;;33.70;37.90;;;;;;6233094;28;20044;-80
2021/07/28 11:21:42;;;;;;;5.03;1.92;;;34.30;36.40;;;;;;6244792;28;20127;-78
2021/07/28 11:24:43;;;;;;;5.85;2.20;;;35.00;35.50;;;;;;6248092;28;20048;-78
2021/07/28 11:28:03;;;;;;;5.80;2.33;;;35.60;34.80;;;;;;6246164;28;20415;-81
2021/07/28 11:31:05;;;;;;;5.72;2.22;;;35.90;34.00;;;;;;6238088;28;20116;-80
2021/07/28 11:34:11;;;;;;;5.30;2.42;;;36.10;33.80;;;;;;6246146;28;20053;-80
2021/07/28 11:37:12;;;;;;;3.35;2.13;;;36.20;33.40;;;;;;6246199;28;20107;-80
2021/07/28 11:40:14;;;;;;;2.30;2.00;;;35.70;33.60;;;;;;6263333;28;20415;-79
2021/07/28 11:43:29;;;;;;;2.92;1.98;;;35.20;34.10;;;;;;6246604;28;20045;-79
2021/07/28 11:46:30;;;;;;;3.20;2.10;;;35.20;33.50;;;;;;6237659;28;20029;-78
2021/07/28 11:49:31;;;;;;;1.92;1.70;;;35.40;33.40;;;;;;6244246;28;20038;-80
2021/07/28 11:52:46;;;;;;;3.03;1.77;;;35.80;32.80;;;;;;6258214;28;20124;-80
2021/07/28 11:55:48;;;;;;;4.40;2.30;;;36.00;32.50;;;;;;6226585;28;20061;-79
2021/07/28 11:58:52;;;;;;;6.82;2.60;;;36.00;32.40;;;;;;6238663;28;20813;-80
2021/07/28 12:01:55;;;;;;;2.10;1.50;;;36.20;32.20;;;;;;6226442;28;20639;-79
2021/07/28 12:05:04;;;;;;;1.92;1.38;;;36.40;31.10;;;;;;6237439;28;20107;-79
2021/07/28 12:08:05;;;;;;;2.20;1.50;;;36.30;30.70;;;;;;6243641;28;20033;-79
2021/07/28 12:11:10;;;;;;;2.25;1.70;;;35.90;30.50;;;;;;6242374;28;20033;-79
2021/07/28 12:14:22;;;;;;;3.78;1.67;;;35.70;31.30;;;;;;6236441;28;20133;-80
2021/07/28 12:17:26;;;;;;;3.40;1.73;;;35.90;31.40;;;;;;6245027;28;20045;-80
2021/07/28 12:20:27;;;;;;;5.00;1.83;;;36.30;31.10;;;;;;6234576;28;20143;-79
2021/07/28 12:23:28;;;;;;;5.50;1.65;;;36.60;30.30;;;;;;6234532;28;20046;-82
2021/07/28 12:26:48;;;;;;;4.07;1.38;;;36.80;29.80;;;;;;6244424;28;20348;-80
2021/07/28 12:30:20;;;;;;;1.73;1.20;;;36.80;29.60;;;;;;6243393;28;20048;-79
2021/07/28 12:33:24;;;;;;;6.43;1.42;;;36.90;29.30;;;;;;6253293;28;20042;-80
2021/07/28 12:36:29;;;;;;;4.18;1.52;;;37.20;28.70;;;;;;6244792;28;20053;-80
2021/07/28 12:39:30;;;;;;;8.98;1.73;;;37.30;28.60;;;;;;6260251;28;20102;-80
2021/07/28 12:42:31;;;;;;;2.65;1.55;;;37.40;28.40;;;;;;6237945;28;20033;-79
2021/07/28 12:45:34;;;;;;;2.63;1.52;;;37.50;28.10;;;;;;6261358;28;20038;-80
2021/07/28 12:48:38;;;;;;;2.90;1.40;;;37.60;27.60;;;;;;6242430;28;20037;-80
2021/07/28 12:51:40;;;;;;;2.42;1.30;;;37.80;27.60;;;;;;6243234;28;20465;-79
2021/07/28 12:54:41;;;;;;;4.57;1.30;;;37.90;27.50;;;;;;6220810;28;20513;-79
2021/07/28 12:57:42;;;;;;;3.58;1.77;;;38.20;27.20;;;;;;6242576;28;20034;-80
2021/07/28 13:00:44;;;;;;;2.70;1.48;;;38.30;27.10;;;;;;6244233;28;20111;-80
2021/07/28 13:03:54;;;;;;;2.85;1.50;;;38.70;27.00;;;;;;6259373;28;20180;-80
2021/07/28 13:07:08;;;;;;;8.45;1.88;;;39.10;26.60;;;;;;6259385;28;20087;-78
2021/07/28 13:10:09;;;;;;;1.40;1.30;;;39.40;26.40;;;;;;6242860;28;20037;-79
2021/07/28 13:13:12;;;;;;;4.88;1.55;;;39.20;26.10;;;;;;6243314;28;20458;-79
2021/07/28 13:16:13;;;;;;;8.27;2.08;;;38.30;26.80;;;;;;6244730;28;20041;-80
2021/07/28 13:19:14;;;;;;;6.40;1.60;;;37.90;27.50;;;;;;6233853;28;20052;-79
2021/07/28 13:22:15;;;;;;;1.30;1.17;;;37.60;27.70;;;;;;6244154;28;20110;-80
2021/07/28 13:25:16;;;;;;;2.28;1.65;;;37.30;28.10;;;;;;6259439;28;20037;-80
2021/07/28 13:28:17;;;;;;;1.77;1.30;;;37.70;27.70;;;;;;6243766;28;20046;-80
2021/07/28 13:31:18;;;;;;;1.42;1.27;;;38.10;27.30;;;;;;6243348;28;20038;-79
2021/07/28 13:34:19;;;;;;;2.70;1.40;;;38.40;27.60;;;;;;6259498;28;20056;-82
2021/07/28 13:37:20;;;;;;;3.60;1.63;;;39.20;26.60;;;;;;6244945;28;20476;-79
2021/07/28 13:40:22;;;;;;;4.60;1.52;;;40.20;25.50;;;;;;6243597;28;20124;-79
2021/07/28 13:43:25;;;;;;;4.80;1.60;;;41.30;24.90;;;;;;6244505;28;20041;-80
2021/07/28 13:46:29;;;;;;;1.73;1.27;;;41.10;24.60;;;;;;6259643;28;20422;-80
2021/07/28 13:49:30;;;;;;;7.53;1.40;;;40.40;25.00;;;;;;6245284;28;20488;-81
2021/07/28 13:52:32;;;;;;;2.72;1.55;;;39.20;26.00;;;;;;6246626;28;20041;-81
2021/07/28 13:55:33;;;;;;;2.30;1.58;;;37.90;27.20;;;;;;6244992;28;20049;-78
2021/07/28 13:58:34;;;;;;;2.45;1.58;;;36.90;28.20;;;;;;6241915;28;20057;-81
2021/07/28 14:01:35;;;;;;;6.72;1.50;;;36.10;29.00;;;;;;6245289;28;20065;-80
2021/07/28 14:04:36;;;;;;;2.92;1.52;;;35.30;29.90;;;;;;6245079;28;20033;-79
2021/07/28 14:07:38;;;;;;;3.25;1.63;;;34.70;30.60;;;;;;6241466;28;20029;-79
2021/07/28 14:10:40;;;;;;;4.88;1.50;;;34.50;31.00;;;;;;6247993;28;20037;-78
2021/07/28 14:13:41;;;;;;;11.80;1.42;;;34.20;31.00;;;;;;6262805;28;20034;-79
2021/07/28 14:16:42;;;;;;;2.20;1.60;;;33.90;31.50;;;;;;6247517;28;20060;-79
2021/07/28 14:19:43;;;;;;;3.28;1.58;;;34.20;31.50;;;;;;6245632;28;20037;-79
2021/07/28 14:22:44;;;;;;;5.68;1.40;;;34.50;30.80;;;;;;6243887;28;20351;-79
2021/07/28 14:25:45;;;;;;;1.50;1.40;;;34.30;31.00;;;;;;6244045;28;20374;-79
2021/07/28 14:28:46;;;;;;;4.90;1.60;;;33.90;31.70;;;;;;6244385;28;20415;-79
2021/07/28 14:31:47;;;;;;;2.47;1.35;;;33.80;32.80;;;;;;6239560;28;20037;-79
2021/07/28 14:34:50;;;;;;;1.55;1.40;;;34.60;31.50;;;;;;6243649;28;20049;-80
2021/07/28 14:37:51;;;;;;;4.45;1.55;;;35.50;30.00;;;;;;6243605;28;20374;-78
2021/07/28 14:40:52;;;;;;;1.58;1.38;;;36.20;29.40;;;;;;6258911;28;20393;-78
2021/07/28 14:43:53;;;;;;;1.58;1.42;;;36.60;28.80;;;;;;6244202;28;20026;-79
2021/07/28 14:46:55;;;;;;;2.35;1.40;;;36.30;29.20;;;;;;6245837;28;20025;-79
2021/07/28 14:49:56;;;;;;;4.25;1.25;;;36.40;29.00;;;;;;6228326;28;20021;-79
2021/07/28 14:52:57;;;;;;;1.90;1.38;;;36.00;29.30;;;;;;6245274;28;20033;-79
2021/07/28 14:55:59;;;;;;;2.47;1.70;;;35.30;29.80;;;;;;6244126;28;20038;-80
2021/07/28 14:59:00;;;;;;;4.93;1.55;;;34.60;30.60;;;;;;6242446;28;20034;-79
2021/07/28 15:02:01;;;;;;;2.33;1.55;;;34.00;31.40;;;;;;6208896;28;20048;-79
2021/07/28 15:05:03;;;;;;;3.78;1.63;;;33.50;32.10;;;;;;6227998;28;20037;-79
2021/07/28 15:08:04;;;;;;;2.28;1.42;;;33.30;32.60;;;;;;6260641;28;20128;-80
2021/07/28 15:11:06;;;;;;;2.30;1.50;;;33.00;33.00;;;;;;6259830;28;20083;-79
2021/07/28 15:14:07;;;;;;;2.17;1.65;;;32.80;33.50;;;;;;6264112;28;20034;-79
2021/07/28 15:17:08;;;;;;;2.70;1.60;;;32.50;33.90;;;;;;6246895;28;20037;-79
2021/07/28 15:20:09;;;;;;;3.80;1.75;;;32.20;34.50;;;;;;6263801;28;20473;-79
2021/07/28 15:23:14;;;;;;;5.32;1.67;;;31.90;35.00;;;;;;6249907;28;20025;-80
2021/07/28 15:26:15;;;;;;;2.53;1.23;;;31.80;35.50;;;;;;6247689;28;20045;-80
2021/07/28 15:29:18;;;;;;;4.43;1.67;;;31.60;35.70;;;;;;6263271;28;20045;-77
2021/07/28 15:32:23;;;;;;;2.38;1.70;;;31.50;35.90;;;;;;6244195;28;20112;-79
2021/07/28 15:35:26;;;;;;;2.47;1.48;;;31.40;36.10;;;;;;6254081;28;20103;-82
2021/07/28 15:38:27;;;;;;;5.80;1.60;;;31.40;36.30;;;;;;6249561;28;20060;-78
2021/07/28 15:41:30;;;;;;;2.60;1.60;;;31.90;35.90;;;;;;6252510;28;20119;-80
2021/07/28 15:44:31;;;;;;;2.58;1.73;;;32.50;34.70;;;;;;6260827;28;20180;-79
2021/07/28 15:47:33;;;;;;;5.05;1.73;;;32.50;34.50;;;;;;6244024;28;20038;-78
2021/07/28 15:50:34;;;;;;;3.40;1.90;;;32.40;34.80;;;;;;6247970;28;20072;-77
2021/07/28 15:53:35;;;;;;;4.80;1.90;;;32.90;34.30;;;;;;6263662;28;20089;-77
2021/07/28 15:56:36;;;;;;;4.43;2.00;;;34.30;32.20;;;;;;6228836;28;20107;-78